This is the latest recevied weather packets stored in our database for station/object BMCB-22. If no packets are shown the sender has not sent any weather packets the latest 10 day(s).
| Time | Temp. | Humidity | Pressure | Rain* | Wind** | Luminosity | Snow |
|---|---|---|---|---|---|---|---|
| 1777818058 | 11.11° C | 94% | 1013.6 hPa | 0.25 mm | - | 122 W/m² | - |
| 1777817457 | 11.11° C | 94% | 1013.7 hPa | 0.51 mm | - | 94 W/m² | - |
| 1777813861 | 11.11° C | 94% | 1014.1 hPa | 0.76 mm | - | 82 W/m² | - |
| 1777807860 | 11.11° C | 91% | 1013.8 hPa | 1.02 mm | - | 314 W/m² | - |
| 1777806659 | 10.56° C | 90% | 1014 hPa | 1.27 mm | - | 150 W/m² | - |
| 1777804867 | 10.56° C | 88% | 1014.1 hPa | 1.02 mm | - | 258 W/m² | - |
| 1777802459 | 11.11° C | 79% | 1014.1 hPa | 0.25 mm | - | 166 W/m² | - |
| 1777798858 | 12.22° C | 66% | 1013.3 hPa | 0 mm | - | 186 W/m² | - |
| 1777793458 | 12.78° C | 64% | 1013.2 hPa | 0 mm | - | 182 W/m² | - |
| 1777783856 | 10.56° C | 75% | 1013.9 hPa | 0 mm | - | 30 W/m² | - |
| 1777782053 | 11.11° C | 73% | 1013.8 hPa | 0 mm | - | 2 W/m² | - |
| 1777781455 | 11.11° C | 74% | 1013.8 hPa | 0 mm | - | 0 W/m² | - |
| 1777779054 | 11.11° C | 78% | 1013.9 hPa | 0 mm | - | 0 W/m² | - |
| 1777778453 | 11.11° C | 78% | 1014 hPa | 0 mm | - | 0 W/m² | - |
| 1777774254 | 11.11° C | 85% | 1014.1 hPa | 0 mm | - | 0 W/m² | - |
| 1777768856 | 12.22° C | 84% | 1014.6 hPa | 0 mm | - | 0 W/m² | - |
| 1777765263 | 13.33° C | 82% | 1015 hPa | 0 mm | - | 0 W/m² | - |
| 1777764065 | 12.78° C | 83% | 1015.2 hPa | 0 mm | - | 0 W/m² | - |
| 1777761662 | 11.67° C | 91% | 1015.6 hPa | 0 mm | - | 0 W/m² | - |
| 1777757468 | 12.22° C | 89% | 1015.8 hPa | 0 mm | - | 0 W/m² | - |
| 1777754469 | 12.78° C | 91% | 1015.9 hPa | 0 mm | - | 0 W/m² | - |
| 1777750860 | 11.67° C | 92% | 1016.1 hPa | 0 mm | - | 0 W/m² | - |
| 1777743660 | 14.44° C | 76% | 1015.9 hPa | 1.02 mm | - | 18 W/m² | - |
| 1777732855 | 21.11° C | 57% | 1015.9 hPa | 0 mm | - | 256 W/m² | - |
| 1777731057 | 21.11° C | 57% | 1016.5 hPa | 0 mm | - | 488 W/m² | - |
* Rain latest hour (hover to see other rain measurements)
** Current wind speed in m/s (hover to see current wind gust speed)